Urbandale, IA

12:41 AM CST on March 06, 2015 (GMT -0600)
Chipmunk and Squirrel Railroad | Change Station
CLOSE
Current Station
Personal Weather Station
Location: Urbandale, IA
Elevation: 957 ft
Nearby Weather Stations

Elev 957 ft 41.63 °N, 93.75 °W | Updated 7 seconds ago

Clear
Clear
15.9 °F
Feels Like 9 °F
N
4.0
Wind Variable Wind from South
Gusts 11.0 mph

Today
High -- | Low -- °F
--% Chance of Precip.
Yesterday
High -- | Low -- °F
Precip. -- in
6:42 AM 6:11 PM
Full, 100% visible
Pressure 30.45 in
Visibility 10.0 miles
Clouds Few 9000 ft
Windchill 9 °F
Dew Point 6 °F
Humidity 64%
Rainfall in
Snow Depth Not available.
UV 0 out of 12
Pollen .50 out of 12
Air Quality Not available.
Flu Activity Not available.
METAR KDSM 060554Z 16009KT 10SM FEW090 M09/M16 A3039 RMK AO2 SLP309 T10891156 11061 21089 410611167 58024

More Conditions Fewer Conditions

Pressure 30.45 in
Visibility 10.0 miles
Clouds Few 9000 ft
Windchill 9 °F
Dew Point 6 °F
Humidity 64%
Rainfall in
Snow Depth Not available.
UV 0 out of 12
Pollen .50 out of 12
Air Quality Not available.
Flu Activity Not available.
METAR KDSM 060554Z 16009KT 10SM FEW090 M09/M16 A3039 RMK AO2 SLP309 T10891156 11061 21089 410611167 58024

More Conditions Fewer Conditions

10-Day Weather Forecast

Almanac

Astronomy

Mar. 06, 2015 Rise Set
Actual Time
Civil Twilight
Nautical Twilight
Astronomical Twilight
Moon
Length of Visible Light
Length of Day
Tomorrow will be .
, % of the Moon is Illuminated

Today's Extremes

State Highs State Lows

Community

WunderPhotos

Upload Photos

1,803,197 photos uploaded!

WunderBlogs® & News

Nearby

Air Quality

  Air Quality AQ Index Pollutant
Not available.

Snow Depth

Station Depth Elevation

Earthquake Activity

City Distance Mag. Time & Date
Minimum magnitude displayed is 2.5.

Coastal Water Temperatures

Place Temperature

Nearby Weather Stations